Terminal Aerodrome Forecast
Issued by NWS

Home | Current Version | Previous Version | Text Only | Print | Product List | Glossary Off
Versions: 1 2 3 4 5 6 7 8 9 10 11 12 13 14 15 16 17 18 19 20 21 22 23

915
FTUS43 KABR 220531
TAFPIR
TAF
KPIR 220531Z 2206/2306 05011KT P6SM SCT150
     FM220700 05010KT P6SM VCTS SCT070CB BKN100
      TEMPO 2208/2212 5SM SHRA OVC070
     FM221500 33007KT P6SM BKN100
     FM221700 32014KT P6SM BKN150
     FM230400 32008KT P6SM SCT250=

USA.gov is the U.S. government's official web portal to all federal, state and local government web resources and services.